Time;durP1;ratioP1;P1;durP2;ratioP2;P2;SDS_P1;SDS_P2;PMS_P1;PMS_P2;Temp;Humidity;BMP_temperature;BMP_pressure;BME280_temperature;BME280_humidity;BME280_pressure;Samples;Min_cycle;Max_cycle;Signal;HPM_P1;HPM_P2
2023/02/08 00:03:07;;;;;;;26.45;18.25;;;;;;;-1.53;100.00;103958.09;10391579;28;20034;-65
2023/02/08 00:08:07;;;;;;;32.10;19.30;;;;;;;-1.58;100.00;103952.06;10374939;28;20117;-65
2023/02/08 00:13:08;;;;;;;30.73;20.65;;;;;;;-1.74;100.00;103939.19;10392795;28;20160;-65
2023/02/08 00:18:08;;;;;;;29.77;20.27;;;;;;;-1.87;100.00;103941.31;10375815;28;20117;-65
2023/02/08 00:23:09;;;;;;;33.95;20.45;;;;;;;-1.93;100.00;103930.00;10375651;28;20044;-65
2023/02/08 00:28:14;;;;;;;35.67;22.02;;;;;;;-1.83;100.00;103922.66;10375983;28;20458;-65
2023/02/08 00:33:14;;;;;;;32.50;20.48;;;;;;;-1.89;100.00;103911.25;10375239;28;20112;-65
2023/02/08 00:38:14;;;;;;;34.83;23.13;;;;;;;-1.94;100.00;103910.53;10390524;28;20038;-65
2023/02/08 00:43:15;;;;;;;34.25;22.20;;;;;;;-1.96;100.00;103906.19;10375349;28;20125;-65
2023/02/08 00:48:15;;;;;;;37.38;22.50;;;;;;;-1.93;100.00;103906.09;10393630;28;20080;-65
2023/02/08 00:53:16;;;;;;;36.83;20.20;;;;;;;-1.95;100.00;103913.22;10377619;28;20106;-65
2023/02/08 00:58:16;;;;;;;26.73;18.30;;;;;;;-1.80;100.00;103915.47;10374100;28;20121;-65
2023/02/08 01:03:17;;;;;;;28.98;19.77;;;;;;;-1.82;100.00;103919.94;10389911;28;20052;-65
2023/02/08 01:08:19;;;;;;;33.83;19.92;;;;;;;-1.87;100.00;103922.72;10374432;28;20437;-65
2023/02/08 01:13:19;;;;;;;27.88;17.45;;;;;;;-1.89;100.00;103926.34;10396874;28;20034;-65
2023/02/08 01:18:20;;;;;;;32.55;19.40;;;;;;;-1.92;100.00;103929.06;10384412;28;20049;-65
2023/02/08 01:23:20;;;;;;;28.30;19.98;;;;;;;-2.03;100.00;103918.75;10382486;28;20493;-65
2023/02/08 01:28:21;;;;;;;25.17;18.75;;;;;;;-2.16;100.00;103918.22;10382206;28;20033;-66
2023/02/08 01:33:21;;;;;;;32.72;21.38;;;;;;;-2.20;100.00;103919.22;10380681;28;20140;-65
2023/02/08 01:38:21;;;;;;;37.33;20.27;;;;;;;-2.35;100.00;103915.16;10381201;28;20038;-65
2023/02/08 01:43:33;;;;;;;29.92;19.67;;;;;;;-2.45;100.00;103918.09;10380467;28;20033;-65
2023/02/08 01:48:38;;;;;;;36.53;20.67;;;;;;;-2.48;100.00;103912.88;10380390;28;20034;-65
2023/02/08 01:53:39;;;;;;;34.25;21.00;;;;;;;-2.53;100.00;103912.09;10380141;28;20096;-65
2023/02/08 01:58:43;;;;;;;30.55;19.63;;;;;;;-2.58;100.00;103917.53;10379524;28;20026;-65
2023/02/08 02:03:43;;;;;;;25.35;19.88;;;;;;;-2.51;100.00;103907.63;10363368;28;20386;-65
2023/02/08 02:08:48;;;;;;;30.35;19.92;;;;;;;-2.43;100.00;103910.94;10395630;28;20042;-65
2023/02/08 02:13:49;;;;;;;31.70;21.23;;;;;;;-2.34;100.00;103908.06;10378783;28;20084;-65
2023/02/08 02:18:50;;;;;;;36.80;19.52;;;;;;;-2.28;100.00;103899.94;10396610;28;20033;-65
2023/02/08 02:24:41;;;;;;;36.80;19.80;;;;;;;-2.26;100.00;103902.56;10379264;28;20482;-65
2023/02/08 02:30:03;;;;;;;27.40;18.52;;;;;;;-2.36;100.00;103886.91;10375277;28;20057;-65
2023/02/08 02:35:39;;;;;;;25.65;18.70;;;;;;;-2.46;100.00;103888.00;10380309;28;20054;-65
2023/02/08 02:40:58;;;;;;;30.25;19.88;;;;;;;-2.47;100.00;103888.94;10367226;28;20088;-66
2023/02/08 02:46:13;;;;;;;27.33;18.95;;;;;;;-2.48;100.00;103892.50;10379425;28;20190;-65
2023/02/08 02:51:21;;;;;;;32.37;20.40;;;;;;;-2.52;100.00;103896.16;10378730;28;20431;-65
2023/02/08 02:56:23;;;;;;;23.25;18.85;;;;;;;-2.59;100.00;103894.53;10393898;28;20030;-65
2023/02/08 03:01:28;;;;;;;25.83;15.45;;;;;;;-2.62;100.00;103886.66;10379349;28;20033;-65
2023/02/08 03:07:00;;;;;;;23.67;18.02;;;;;;;-2.79;100.00;103892.41;10377009;28;20029;-65
2023/02/08 03:12:33;;;;;;;28.40;18.00;;;;;;;-2.83;100.00;103888.94;10378463;28;20049;-65
2023/02/08 03:17:41;;;;;;;22.63;15.95;;;;;;;-2.89;100.00;103883.78;10378571;28;20072;-65
2023/02/08 03:23:00;;;;;;;30.85;17.45;;;;;;;-2.85;100.00;103866.03;10376787;28;20124;-65
2023/02/08 03:28:02;;;;;;;27.25;17.20;;;;;;;-2.66;100.00;103877.03;10378227;28;20484;-65
2023/02/08 03:33:25;;;;;;;24.23;16.45;;;;;;;-2.71;100.00;103855.97;10376732;28;20462;-65
2023/02/08 03:38:31;;;;;;;27.60;18.75;;;;;;;-2.78;100.00;103857.00;10377443;28;20045;-65
2023/02/08 03:43:55;;;;;;;25.00;18.00;;;;;;;-2.81;100.00;103857.97;10375241;28;20026;-65
2023/02/08 03:49:02;;;;;;;24.70;18.85;;;;;;;-2.71;100.00;103858.63;10378080;28;20057;-65
2023/02/08 03:54:05;;;;;;;26.30;20.25;;;;;;;-2.73;100.00;103857.75;10391863;28;20078;-65
2023/02/08 03:59:08;;;;;;;26.95;19.13;;;;;;;-2.65;100.00;103865.53;10358881;28;20482;-65
2023/02/08 04:04:08;;;;;;;30.63;20.75;;;;;;;-2.63;100.00;103858.41;10374684;28;20470;-65
2023/02/08 04:09:09;;;;;;;37.92;20.85;;;;;;;-2.76;100.00;103865.81;10376026;28;20026;-65
2023/02/08 04:14:10;;;;;;;30.00;21.83;;;;;;;-2.74;100.00;103863.09;10377047;28;20030;-65
2023/02/08 04:19:10;;;;;;;30.48;22.05;;;;;;;-2.67;100.00;103857.63;10374731;28;20049;-65
2023/02/08 04:24:10;;;;;;;20.20;14.02;;;;;;;-2.69;100.00;103863.88;10374690;28;20409;-65
2023/02/08 04:29:11;;;;;;;34.67;19.65;;;;;;;-2.56;100.00;103852.03;10375426;28;20109;-65
2023/02/08 04:34:11;;;;;;;25.38;18.55;;;;;;;-2.59;100.00;103855.63;10375018;28;20052;-65
2023/02/08 04:39:12;;;;;;;28.75;19.90;;;;;;;-2.58;100.00;103845.91;10390968;28;20474;-65
2023/02/08 04:44:13;;;;;;;24.05;19.55;;;;;;;-2.58;100.00;103851.22;10375086;28;20038;-65
2023/02/08 04:49:14;;;;;;;28.45;19.75;;;;;;;-2.53;100.00;103849.28;10373923;28;20164;-65
2023/02/08 04:54:14;;;;;;;31.20;20.50;;;;;;;-2.49;100.00;103837.72;10376166;28;20203;-65
2023/02/08 04:59:15;;;;;;;24.80;18.33;;;;;;;-2.52;100.00;103828.94;10374786;28;20080;-65
2023/02/08 05:04:15;;;;;;;30.08;21.58;;;;;;;-2.54;100.00;103826.34;10389855;28;20030;-65
2023/02/08 05:09:16;;;;;;;26.88;20.30;;;;;;;-2.58;100.00;103809.63;10374888;28;20057;-65
2023/02/08 05:14:16;;;;;;;24.45;21.35;;;;;;;-2.58;100.00;103817.59;10376664;28;20034;-65
2023/02/08 05:19:17;;;;;;;31.92;21.40;;;;;;;-2.57;100.00;103823.75;10376105;28;20037;-65
2023/02/08 05:24:17;;;;;;;20.13;15.88;;;;;;;-2.59;100.00;103814.97;10373098;28;20065;-65
2023/02/08 05:29:17;;;;;;;26.20;20.58;;;;;;;-2.48;100.00;103827.97;10388922;28;20037;-65
2023/02/08 05:34:18;;;;;;;26.55;21.50;;;;;;;-2.49;100.00;103826.19;10373692;28;20136;-65
2023/02/08 05:39:18;;;;;;;29.48;19.45;;;;;;;-2.55;100.00;103824.59;10374467;28;20034;-65
2023/02/08 05:44:19;;;;;;;27.88;22.42;;;;;;;-2.52;100.00;103815.66;10316047;28;20053;-65
2023/02/08 05:49:19;;;;;;;26.42;19.98;;;;;;;-2.51;100.00;103812.13;10373820;28;20038;-65
2023/02/08 05:54:20;;;;;;;24.73;17.52;;;;;;;-2.61;100.00;103812.38;10372451;28;20026;-65
2023/02/08 05:59:20;;;;;;;26.08;20.08;;;;;;;-2.66;100.00;103806.28;10393058;28;20124;-66
2023/02/08 06:04:21;;;;;;;33.22;20.65;;;;;;;-2.66;100.00;103808.09;10380018;28;20030;-65
2023/02/08 06:09:21;;;;;;;26.08;19.70;;;;;;;-2.68;100.00;103810.78;10381037;28;20037;-65
2023/02/08 06:14:22;;;;;;;30.08;18.65;;;;;;;-2.72;100.00;103814.41;10380480;28;20040;-65
2023/02/08 06:19:22;;;;;;;26.00;17.90;;;;;;;-2.75;100.00;103818.94;10394992;28;20041;-65
2023/02/08 06:24:24;;;;;;;23.40;18.92;;;;;;;-2.75;100.00;103816.28;10378881;28;20041;-65
2023/02/08 06:29:24;;;;;;;31.95;18.45;;;;;;;-2.81;100.00;103815.53;10380252;28;20485;-65
2023/02/08 06:34:24;;;;;;;30.88;19.33;;;;;;;-2.78;100.00;103819.88;10379680;28;20132;-65
2023/02/08 06:39:27;;;;;;;27.65;20.17;;;;;;;-2.90;100.00;103830.81;10378724;28;20464;-64
2023/02/08 06:44:27;;;;;;;25.00;17.83;;;;;;;-3.07;100.00;103829.41;10379143;28;20042;-64
2023/02/08 06:49:28;;;;;;;29.30;19.95;;;;;;;-3.04;100.00;103813.44;10378480;28;20545;-65
2023/02/08 06:54:28;;;;;;;31.27;20.85;;;;;;;-2.93;100.00;103809.69;10379385;28;20034;-64
2023/02/08 06:59:29;;;;;;;30.02;20.58;;;;;;;-2.90;100.00;103804.28;10378046;28;20109;-65
2023/02/08 07:04:29;;;;;;;23.50;18.05;;;;;;;-2.83;100.00;103801.44;10395064;28;20032;-65
2023/02/08 07:09:32;;;;;;;30.73;19.65;;;;;;;-2.88;100.00;103810.41;10392277;28;20466;-65
2023/02/08 07:14:34;;;;;;;29.23;20.08;;;;;;;-2.86;100.00;103805.94;10377722;28;20041;-64
2023/02/08 07:19:35;;;;;;;34.40;20.20;;;;;;;-2.77;100.00;103808.38;10361756;28;20449;-65
2023/02/08 07:24:36;;;;;;;25.30;19.05;;;;;;;-2.77;100.00;103811.03;10376372;28;20028;-64
2023/02/08 07:29:37;;;;;;;23.25;17.52;;;;;;;-2.71;100.00;103809.97;10375766;28;20092;-64
2023/02/08 07:34:39;;;;;;;34.10;23.25;;;;;;;-2.37;100.00;103804.66;10377056;28;20057;-65
2023/02/08 07:39:39;;;;;;;29.05;21.50;;;;;;;-2.13;100.00;103798.66;10377525;28;20041;-65
2023/02/08 07:44:40;;;;;;;33.28;24.48;;;;;;;-1.84;100.00;103804.91;10377390;28;20061;-65
2023/02/08 07:49:40;;;;;;;30.60;22.85;;;;;;;-1.33;100.00;103806.03;10374798;28;20160;-65
2023/02/08 07:54:41;;;;;;;41.25;27.73;;;;;;;-0.84;100.00;103794.63;10374510;28;20068;-65
2023/02/08 07:59:41;;;;;;;39.58;24.08;;;;;;;-0.20;100.00;103799.47;10375600;28;20061;-65
2023/02/08 08:04:42;;;;;;;29.35;20.15;;;;;;;0.37;100.00;103798.22;10376119;28;20129;-65
2023/02/08 08:09:42;;;;;;;33.42;23.85;;;;;;;0.82;100.00;103783.97;10374753;28;20033;-65
2023/02/08 08:14:42;;;;;;;39.28;25.92;;;;;;;1.13;100.00;103780.88;10374414;28;20026;-65
2023/02/08 08:19:43;;;;;;;28.67;22.02;;;;;;;1.45;100.00;103789.31;10375811;28;20034;-65
2023/02/08 08:24:43;;;;;;;41.92;28.77;;;;;;;1.75;100.00;103781.72;10390638;28;20048;-65
2023/02/08 08:29:44;;;;;;;41.53;30.20;;;;;;;1.80;100.00;103786.88;10376059;28;20064;-65
2023/02/08 08:34:44;;;;;;;41.70;30.73;;;;;;;1.96;100.00;103781.72;10374244;28;20115;-65
2023/02/08 08:39:45;;;;;;;34.22;24.45;;;;;;;2.26;100.00;103782.06;10374948;28;20174;-65
2023/02/08 08:44:45;;;;;;;24.10;19.27;;;;;;;2.50;100.00;103783.59;10373523;28;20038;-65
2023/02/08 08:49:46;;;;;;;23.80;17.45;;;;;;;2.76;100.00;103776.97;10375225;28;20044;-65
2023/02/08 08:54:46;;;;;;;25.20;16.65;;;;;;;3.30;100.00;103768.91;10389236;28;20030;-64
2023/02/08 08:59:47;;;;;;;23.77;15.75;;;;;;;3.78;100.00;103771.75;10374870;28;20139;-65
2023/02/08 09:04:47;;;;;;;19.80;15.48;;;;;;;3.87;100.00;103781.97;10374322;28;20395;-64
2023/02/08 09:09:48;;;;;;;21.27;16.85;;;;;;;4.35;100.00;103778.41;10389274;28;20034;-65
2023/02/08 09:14:48;;;;;;;25.48;15.48;;;;;;;4.61;100.00;103776.06;10375723;28;20399;-64
2023/02/08 09:19:49;;;;;;;16.80;14.25;;;;;;;4.96;100.00;103776.72;10375694;28;20172;-65
2023/02/08 09:24:51;;;;;;;20.13;15.13;;;;;;;5.51;100.00;103769.84;10374586;28;20103;-65
2023/02/08 09:29:52;;;;;;;22.35;15.95;;;;;;;5.85;100.00;103760.56;10389740;28;20037;-65
2023/02/08 09:34:52;;;;;;;20.00;16.08;;;;;;;5.96;100.00;103776.03;10380103;28;20050;-65
2023/02/08 09:39:52;;;;;;;22.38;15.38;;;;;;;5.88;100.00;103779.19;10383595;28;20056;-65
2023/02/08 09:45:13;;;;;;;25.50;15.57;;;;;;;6.06;100.00;103777.19;10381582;28;20084;-65
2023/02/08 09:50:32;;;;;;;24.23;14.77;;;;;;;6.87;100.00;103785.38;10397105;28;20038;-65
2023/02/08 09:55:54;;;;;;;25.33;15.98;;;;;;;7.34;100.00;103777.72;10381070;28;20049;-65
2023/02/08 10:00:54;;;;;;;17.00;14.27;;;;;;;7.37;100.00;103780.19;10379812;28;20042;-65
2023/02/08 10:05:55;;;;;;;21.23;15.35;;;;;;;7.48;100.00;103774.94;10380578;28;20462;-65
2023/02/08 10:11:23;;;;;;;19.10;14.13;;;;;;;7.75;100.00;103769.44;10380821;28;20056;-65
2023/02/08 10:16:39;;;;;;;15.38;13.38;;;;;;;8.39;100.00;103785.53;10380153;28;20036;-65
2023/02/08 10:21:54;;;;;;;21.00;13.50;;;;;;;8.52;100.00;103788.22;10379354;28;20030;-65
2023/02/08 10:27:14;;;;;;;16.60;12.13;;;;;;;8.63;100.00;103791.00;10379640;28;20026;-65
2023/02/08 10:32:24;;;;;;;18.92;13.02;;;;;;;8.60;100.00;103796.63;10395945;28;20034;-64
2023/02/08 10:37:35;;;;;;;13.95;11.18;;;;;;;8.97;100.00;103785.78;10380408;28;20058;-65
2023/02/08 10:42:35;;;;;;;19.33;13.18;;;;;;;8.77;100.00;103780.00;10378133;28;20458;-65
2023/02/08 10:47:44;;;;;;;22.20;15.27;;;;;;;9.15;100.00;103776.25;10377759;28;20049;-65
2023/02/08 10:52:46;;;;;;;20.92;11.82;;;;;;;9.23;100.00;103773.81;10394408;28;20044;-65
2023/02/08 10:57:48;;;;;;;13.90;9.88;;;;;;;9.17;100.00;103773.44;10378171;28;20532;-65
2023/02/08 11:02:50;;;;;;;21.63;9.45;;;;;;;8.70;100.00;103764.38;10378360;28;20414;-65
2023/02/08 11:08:14;;;;;;;17.40;9.45;;;;;;;8.72;100.00;103763.28;10376882;28;20509;-65
2023/02/08 11:13:17;;;;;;;19.50;11.50;;;;;;;8.79;100.00;103755.59;10377690;28;20067;-64
2023/02/08 11:18:33;;;;;;;11.75;10.07;;;;;;;8.95;100.00;103745.34;10379484;28;20123;-65
2023/02/08 11:23:37;;;;;;;16.45;10.80;;;;;;;9.14;100.00;103731.28;10377663;28;20584;-65
2023/02/08 11:28:37;;;;;;;10.25;8.15;;;;;;;9.14;89.97;103736.69;10377493;28;20033;-65
2023/02/08 11:33:37;;;;;;;18.83;9.40;;;;;;;9.38;100.00;103741.16;10378136;28;20140;-65
2023/02/08 11:38:40;;;;;;;11.85;8.95;;;;;;;9.51;100.00;103728.41;10375100;28;20037;-65
2023/02/08 11:43:41;;;;;;;15.02;10.20;;;;;;;9.45;93.25;103713.50;10391354;28;20363;-65
2023/02/08 11:48:48;;;;;;;15.35;9.23;;;;;;;9.11;75.80;103717.13;10375561;28;20026;-65
2023/02/08 11:53:48;;;;;;;;;;;;;;;9.27;93.13;103702.28;10377100;28;20425;-65
2023/02/08 11:59:13;;;;;;;15.82;10.05;;;;;;;9.31;81.62;103703.75;10376067;28;19913;-65
2023/02/08 12:04:15;;;;;;;14.18;9.05;;;;;;;9.28;83.38;103693.22;10375824;28;20037;-65
2023/02/08 12:09:38;;;;;;;9.52;8.38;;;;;;;9.36;82.43;103673.66;10376757;28;20033;-65
2023/02/08 12:15:10;;;;;;;10.15;8.77;;;;;;;9.69;91.42;103666.53;10375255;28;20381;-65
2023/02/08 12:20:26;;;;;;;16.80;8.50;;;;;;;10.09;95.18;103663.31;10391095;28;20033;-65
2023/02/08 12:25:49;;;;;;;10.02;8.15;;;;;;;10.06;80.19;103652.72;10375693;28;20044;-65
2023/02/08 12:31:08;;;;;;;13.10;8.88;;;;;;;9.62;68.04;103632.84;10374173;28;20021;-65
2023/02/08 12:36:22;;;;;;;15.10;9.32;;;;;;;9.84;87.73;103637.38;10389634;28;20393;-65
2023/02/08 12:41:46;;;;;;;9.00;8.07;;;;;;;9.79;71.19;103629.63;10373761;28;20069;-65
2023/02/08 12:46:57;;;;;;;9.95;7.82;;;;;;;9.48;63.00;103612.34;10372801;28;20045;-65
2023/02/08 12:52:21;;;;;;;9.05;8.20;;;;;;;9.82;76.79;103620.41;10391019;28;20121;-65
2023/02/08 12:57:23;;;;;;;8.75;7.50;;;;;;;10.12;91.82;103622.44;10389733;28;20524;-65
2023/02/08 13:02:33;;;;;;;12.95;8.20;;;;;;;9.89;66.60;103611.66;10373332;28;20034;-65
2023/02/08 13:07:41;;;;;;;10.20;6.78;;;;;;;9.66;67.66;103602.72;10361059;28;20385;-65
2023/02/08 13:12:44;;;;;;;14.75;6.47;;;;;;;9.49;69.22;103601.38;10398327;28;20034;-65
2023/02/08 13:17:56;;;;;;;24.48;8.45;;;;;;;10.11;85.82;103596.31;10382174;28;20460;-65
2023/02/08 13:22:59;;;;;;;9.40;7.32;;;;;;;9.82;68.82;103594.19;10367086;28;20033;-65
2023/02/08 13:28:04;;;;;;;10.45;6.82;;;;;;;10.01;80.03;103583.56;10380879;28;20179;-65
2023/02/08 13:33:16;;;;;;;9.48;8.18;;;;;;;10.14;73.24;103577.97;10396532;28;20446;-65
2023/02/08 13:38:28;;;;;;;9.50;8.02;;;;;;;9.78;67.65;103576.50;10380638;28;20470;-65
2023/02/08 13:43:47;;;;;;;9.48;7.78;;;;;;;9.42;59.28;103567.72;10381225;28;20101;-65
2023/02/08 13:48:53;;;;;;;12.70;8.55;;;;;;;9.53;88.91;103558.72;10381355;28;20121;-65
2023/02/08 13:53:56;;;;;;;12.80;9.88;;;;;;;9.05;78.46;103551.72;10381596;28;20033;-65
2023/02/08 13:58:59;;;;;;;14.60;8.35;;;;;;;8.89;75.08;103536.88;10380924;28;20423;-65
2023/02/08 14:04:06;;;;;;;11.15;9.93;;;;;;;8.99;82.29;103527.88;10397048;28;20112;-65
2023/02/08 14:09:18;;;;;;;15.82;8.82;;;;;;;9.07;75.02;103516.47;10378814;28;20091;-65
2023/02/08 14:14:26;;;;;;;10.75;8.00;;;;;;;9.10;88.99;103523.50;10395137;28;20074;-65
2023/02/08 14:19:26;;;;;;;13.13;8.35;;;;;;;8.76;80.88;103512.66;10378397;28;20565;-65
2023/02/08 14:24:33;;;;;;;14.48;7.93;;;;;;;8.78;86.21;103510.72;10379336;28;20080;-65
2023/02/08 14:29:33;;;;;;;11.20;9.43;;;;;;;8.41;74.61;103504.63;10379436;28;20033;-65
2023/02/08 14:34:36;;;;;;;10.73;8.07;;;;;;;8.30;80.36;103498.19;10394801;28;20104;-65
2023/02/08 14:39:37;;;;;;;9.00;7.63;;;;;;;8.23;86.43;103485.28;10394430;28;20096;-65
2023/02/08 14:44:37;;;;;;;9.85;8.30;;;;;;;8.32;78.49;103474.63;10379603;28;20041;-65
2023/02/08 14:49:42;;;;;;;11.02;7.50;;;;;;;8.11;71.38;103477.16;10379019;28;20034;-65
2023/02/08 14:55:14;;;;;;;9.20;7.75;;;;;;;8.25;76.17;103467.13;10362410;28;20061;-65
2023/02/08 15:00:20;;;;;;;12.13;8.50;;;;;;;7.99;77.42;103466.44;10373288;28;20050;-65
2023/02/08 15:05:25;;;;;;;8.23;6.70;;;;;;;7.65;74.32;103461.75;10376679;28;20033;-65
2023/02/08 15:10:27;;;;;;;11.00;8.70;;;;;;;7.45;70.77;103451.63;10377561;28;20373;-65
2023/02/08 15:15:33;;;;;;;10.35;7.22;;;;;;;7.40;77.79;103457.38;10376830;28;20038;-65
2023/02/08 15:20:34;;;;;;;13.23;6.75;;;;;;;7.31;80.46;103457.19;10376715;28;20041;-65
2023/02/08 15:25:35;;;;;;;15.98;7.55;;;;;;;7.19;73.83;103446.31;10377668;28;20037;-65
2023/02/08 15:30:37;;;;;;;8.52;7.38;;;;;;;7.07;71.05;103449.06;10376272;28;20038;-65
2023/02/08 15:35:37;;;;;;;10.18;7.18;;;;;;;6.87;66.73;103432.50;10375947;28;20113;-65
2023/02/08 15:40:38;;;;;;;9.63;6.78;;;;;;;6.55;66.10;103440.22;10377310;28;20033;-65
2023/02/08 15:45:38;;;;;;;12.48;7.57;;;;;;;6.45;75.16;103431.06;10392501;28;20072;-65
2023/02/08 15:50:39;;;;;;;9.23;7.20;;;;;;;6.05;61.14;103431.13;10376519;28;20042;-65
2023/02/08 15:55:45;;;;;;;10.90;7.07;;;;;;;5.94;66.73;103421.13;10376537;28;20034;-64
2023/02/08 16:00:46;;;;;;;8.93;8.05;;;;;;;5.82;65.96;103420.09;10391973;28;20030;-65
2023/02/08 16:05:57;;;;;;;9.50;7.47;;;;;;;5.69;69.84;103405.78;10358473;28;20088;-65
2023/02/08 16:11:08;;;;;;;9.25;6.95;;;;;;;5.52;66.50;103397.97;10358282;28;20033;-65
2023/02/08 16:16:15;;;;;;;11.82;8.13;;;;;;;5.43;71.28;103390.56;10391226;28;20463;-65
2023/02/08 16:21:21;;;;;;;11.60;9.35;;;;;;;5.27;74.16;103391.56;10378094;28;20028;-65
2023/02/08 16:26:30;;;;;;;11.47;7.67;;;;;;;5.15;79.64;103392.38;10390645;28;20049;-65
2023/02/08 16:31:32;;;;;;;14.77;8.48;;;;;;;4.96;78.76;103387.34;10376825;28;20061;-65
2023/02/08 16:36:38;;;;;;;17.58;9.65;;;;;;;4.87;81.56;103382.56;10373548;28;20053;-65
2023/02/08 16:41:54;;;;;;;12.10;9.30;;;;;;;4.68;80.73;103382.88;10374137;28;20137;-65
2023/02/08 16:46:55;;;;;;;10.55;7.22;;;;;;;4.54;82.92;103374.84;10375119;28;20041;-65
2023/02/08 16:51:56;;;;;;;9.60;7.88;;;;;;;4.37;84.87;103371.41;10372890;28;20044;-65
2023/02/08 16:57:03;;;;;;;10.27;9.02;;;;;;;4.21;84.16;103367.94;10374535;28;20470;-65
2023/02/08 17:02:11;;;;;;;15.20;8.25;;;;;;;4.09;85.72;103366.91;10375005;28;20116;-65
2023/02/08 17:07:16;;;;;;;10.32;9.13;;;;;;;3.99;85.58;103362.19;10373260;28;20045;-65
2023/02/08 17:12:17;;;;;;;8.52;7.32;;;;;;;3.90;83.38;103347.53;10390503;28;20033;-65
2023/02/08 17:17:18;;;;;;;15.43;9.93;;;;;;;3.93;84.39;103348.22;10374225;28;20032;-65
2023/02/08 17:22:19;;;;;;;11.63;9.75;;;;;;;3.78;85.73;103340.25;10374172;28;20053;-65
2023/02/08 17:27:25;;;;;;;17.25;11.02;;;;;;;3.62;86.31;103348.34;10373478;28;20026;-65
2023/02/08 17:32:26;;;;;;;;;;;;;;;3.54;84.03;103337.22;10391438;28;20111;-64
2023/02/08 17:37:30;;;;;;;13.30;11.00;;;;;;;3.45;85.99;103341.31;10375943;28;20004;-65
2023/02/08 17:42:31;;;;;;;11.20;8.77;;;;;;;3.34;86.29;103333.91;10372859;28;20048;-65
2023/02/08 17:47:32;;;;;;;11.73;8.95;;;;;;;3.28;86.51;103333.41;10375319;28;20058;-64
2023/02/08 17:52:32;;;;;;;14.18;9.23;;;;;;;3.23;86.97;103320.28;10373706;28;20034;-65
2023/02/08 17:57:33;;;;;;;12.45;8.57;;;;;;;3.14;87.46;103315.47;10381645;28;20030;-65
2023/02/08 18:02:34;;;;;;;12.55;8.80;;;;;;;3.10;87.42;103312.13;10363581;28;20489;-64
2023/02/08 18:07:35;;;;;;;14.05;9.18;;;;;;;3.03;87.96;103303.59;10381790;28;20484;-64
2023/02/08 18:12:35;;;;;;;14.80;9.02;;;;;;;2.92;88.80;103311.34;10379562;28;20038;-65
2023/02/08 18:17:36;;;;;;;14.13;10.15;;;;;;;2.83;88.93;103311.03;10380597;28;20547;-65
2023/02/08 18:22:36;;;;;;;12.95;9.80;;;;;;;2.76;88.30;103321.22;10395724;28;20037;-64
2023/02/08 18:27:37;;;;;;;12.40;10.55;;;;;;;2.77;88.61;103320.25;10380319;28;20037;-64
2023/02/08 18:32:38;;;;;;;17.27;9.43;;;;;;;2.71;90.66;103313.47;10382206;28;20463;-65
2023/02/08 18:37:38;;;;;;;17.02;9.45;;;;;;;2.54;91.22;103317.06;10382405;28;20153;-65
2023/02/08 18:42:39;;;;;;;12.18;9.25;;;;;;;2.31;91.85;103315.69;10379786;28;20128;-65
2023/02/08 18:47:39;;;;;;;15.63;9.85;;;;;;;2.14;91.63;103309.50;10379413;28;20037;-65
2023/02/08 18:52:39;;;;;;;14.05;8.73;;;;;;;2.08;92.98;103306.25;10379114;28;20125;-65
2023/02/08 18:57:40;;;;;;;17.27;10.52;;;;;;;1.88;94.15;103311.78;10378860;28;20080;-65
2023/02/08 19:02:43;;;;;;;15.88;9.57;;;;;;;1.65;94.70;103310.31;10377094;28;20474;-65
2023/02/08 19:07:44;;;;;;;16.20;11.63;;;;;;;1.43;94.56;103315.91;10377236;28;20109;-64
2023/02/08 19:12:44;;;;;;;16.85;11.05;;;;;;;1.23;94.67;103308.06;10376750;28;20375;-65
2023/02/08 19:17:44;;;;;;;18.42;11.20;;;;;;;0.97;95.34;103310.22;10378753;28;20073;-65
2023/02/08 19:22:45;;;;;;;18.58;10.75;;;;;;;0.81;96.06;103303.91;10377797;28;20043;-65
2023/02/08 19:27:49;;;;;;;21.33;12.75;;;;;;;0.71;96.08;103294.63;10392406;28;20478;-65
2023/02/08 19:32:49;;;;;;;21.00;13.35;;;;;;;0.62;96.30;103302.13;10378119;28;20033;-65
2023/02/08 19:37:51;;;;;;;19.55;12.43;;;;;;;0.58;97.28;103287.22;10378496;28;20092;-65
2023/02/08 19:42:51;;;;;;;20.13;11.05;;;;;;;0.63;96.79;103279.00;10379513;28;20496;-65
2023/02/08 19:47:53;;;;;;;19.67;12.38;;;;;;;0.52;97.17;103281.31;10377907;28;20026;-64
2023/02/08 19:52:54;;;;;;;16.52;11.57;;;;;;;0.41;97.57;103289.81;10391673;28;20458;-65
2023/02/08 19:57:54;;;;;;;13.60;12.02;;;;;;;0.42;97.50;103284.44;10376633;28;20046;-65
2023/02/08 20:02:55;;;;;;;19.33;12.07;;;;;;;0.41;97.80;103289.81;10376949;28;20065;-64
2023/02/08 20:07:55;;;;;;;17.02;12.82;;;;;;;0.36;98.20;103284.72;10377338;28;20104;-65
2023/02/08 20:12:55;;;;;;;17.88;11.70;;;;;;;0.35;98.37;103271.44;10376328;28;20042;-65
2023/02/08 20:17:56;;;;;;;15.05;12.05;;;;;;;0.24;98.13;103277.28;10376087;28;20125;-65
2023/02/08 20:22:57;;;;;;;21.80;12.07;;;;;;;0.22;98.92;103274.72;10375167;28;20030;-65
2023/02/08 20:27:57;;;;;;;20.13;13.45;;;;;;;0.22;98.98;103274.72;10375881;28;20033;-65
2023/02/08 20:32:58;;;;;;;26.88;13.07;;;;;;;0.13;98.66;103279.59;10390349;28;20428;-65
2023/02/08 20:37:58;;;;;;;22.20;15.10;;;;;;;0.09;99.86;103288.66;10376123;28;20077;-65
2023/02/08 20:42:58;;;;;;;21.00;13.32;;;;;;;0.06;100.00;103289.66;10375679;28;20045;-64
2023/02/08 20:47:59;;;;;;;19.08;13.13;;;;;;;-0.01;100.00;103280.22;10376372;28;20034;-65
2023/02/08 20:52:59;;;;;;;28.75;13.88;;;;;;;-0.10;100.00;103277.97;10374978;28;20033;-65
2023/02/08 20:58:00;;;;;;;19.55;13.02;;;;;;;-0.18;100.00;103280.13;10374905;28;20065;-65
2023/02/08 21:03:00;;;;;;;21.25;12.85;;;;;;;-0.30;100.00;103285.06;10373263;28;20104;-65
2023/02/08 21:08:00;;;;;;;19.48;11.68;;;;;;;-0.35;100.00;103287.09;10373059;28;20113;-65
2023/02/08 21:13:01;;;;;;;17.13;10.40;;;;;;;-0.36;100.00;103269.34;10376037;28;20041;-64
2023/02/08 21:18:01;;;;;;;16.83;10.20;;;;;;;-0.22;100.00;103251.91;10375305;28;20370;-65
2023/02/08 21:23:02;;;;;;;13.65;9.73;;;;;;;-0.08;100.00;103254.81;10373828;28;20034;-65
2023/02/08 21:28:02;;;;;;;14.00;8.98;;;;;;;-0.01;100.00;103253.59;10376791;28;20034;-65
2023/02/08 21:33:03;;;;;;;16.55;9.40;;;;;;;-0.06;100.00;103255.63;10396909;28;20491;-65
2023/02/08 21:38:04;;;;;;;12.77;9.07;;;;;;;-0.07;100.00;103251.19;10397080;28;20046;-64
2023/02/08 21:43:05;;;;;;;19.05;9.63;;;;;;;-0.14;100.00;103237.31;10380665;28;20604;-65
2023/02/08 21:48:05;;;;;;;12.45;7.85;;;;;;;-0.12;100.00;103240.78;10385499;28;20084;-65
2023/02/08 21:58:24;;;;;;;10.07;8.65;;;;;;;-0.05;100.00;103241.34;10381069;28;20128;-65
2023/02/08 22:03:25;;;;;;;12.35;8.38;;;;;;;-0.08;100.00;103226.38;10364615;28;20148;-65
2023/02/08 22:08:26;;;;;;;14.98;8.35;;;;;;;-0.13;100.00;103207.06;10382475;28;20187;-64
2023/02/08 22:13:26;;;;;;;14.70;9.15;;;;;;;-0.20;100.00;103205.63;10396100;28;20041;-64
2023/02/08 22:18:26;;;;;;;13.05;9.57;;;;;;;-0.11;100.00;103209.69;10335544;28;20378;-64
2023/02/08 22:23:27;;;;;;;12.05;8.07;;;;;;;-0.11;100.00;103207.00;10380221;28;20045;-65
2023/02/08 22:28:27;;;;;;;13.68;9.35;;;;;;;-0.11;100.00;103199.03;10378444;28;20069;-65
2023/02/08 22:33:28;;;;;;;10.00;8.43;;;;;;;-0.17;100.00;103186.84;10362381;28;20421;-65
2023/02/08 22:38:28;;;;;;;11.82;7.28;;;;;;;-0.31;100.00;103182.16;10380111;28;20122;-65
2023/02/08 22:43:29;;;;;;;16.80;10.25;;;;;;;-0.44;100.00;103189.00;10380250;28;20466;-65
2023/02/08 22:48:29;;;;;;;15.27;8.38;;;;;;;-0.51;100.00;103185.75;10378850;28;20113;-65
2023/02/08 22:53:29;;;;;;;31.05;10.07;;;;;;;-0.35;100.00;103203.66;10379839;28;20034;-65
2023/02/08 22:58:30;;;;;;;21.40;10.23;;;;;;;-0.42;100.00;103200.41;10382120;28;20514;-64